Martin State Airport
KMTN : now visible

Airfield :











YOU CAN JOIN US ON...

 
LOGIN :

Register | Disclaimer

   EN    FR    IT 

 









Legend :    VFR   Marginal VFR   IFR   Intensive IFR   Very Intensive IFR
Visi :
Ceiling :
>= 8 km
>= 3000ft
5 to 8 km
1000 to 3000 ft
1500m to 5 km
500 to 1000 ft
800 to 1500m
200 to 500 ft
< 800m
< 200 ft
Symbols :   Thunderstorms  Fog  Heavy snow  Heavy precipitations  Wind > 20 kt







- Airport Elevation : 21 ft


KMTN - Martin State

CURRENT METAR :
  • 200902Z AUTO 00000KT 10SM CLR 11/11 A3031 RMK AO2

EXPIRED METARs :
  • 200842Z AUTO 27003KT 10SM CLR 10/10 A3031 RMK AO2
  • 200822Z AUTO 00000KT 10SM CLR 11/11 A3031 RMK AO2
  • 200802Z AUTO 00000KT 10SM CLR 11/11 A3030 RMK AO2
  • 200742Z AUTO 00000KT 10SM CLR 12/11 A3030 RMK AO2
  • 200722Z AUTO 00000KT 10SM CLR 11/10 A3030 RMK AO2
  • 200702Z AUTO 00000KT 10SM CLR 11/10 A3030 RMK AO2
  • 200642Z AUTO 00000KT 10SM CLR 11/11 A3030 RMK AO2
  • 200622Z AUTO 00000KT 10SM CLR 11/10 A3030 RMK AO2

TAF KMTN
Valid from the 20 at 06:00 until the 21 at 06:00 UTC


200525Z 2006/2106 00000KT P6SM SKC
FM201400 24004KT P6SM SKC
FM201800 19006KT P6SM SKC AMD NOT SKED
No reported NOTAMs for that airfield.



MET'MAP, your aeronautical weather chart ! - Copyright ORBIFLY December 2007 - Disclaimer

ORBIFLY MET'MAP TEAM :

Programming & Development : Alexandra Zaïnal
Concept & Development : Baudouin d'Aumeries
Co-Development & Prog : Marc-Olivier Méhu
Technical & hardware support : Manuel Goepfert

Contact : metmap@orbifly.com




SOURCES & CREDITS :

   NOAA       Earth
Advisory